sensor_id;sensor_type;location;lat;lon;timestamp;P1;durP1;ratioP1;P2;durP2;ratioP2
55003;SDS011;40900;52.710;6.438;2022-07-18T00:01:51;11.60;;;6.80;;
55003;SDS011;40900;52.710;6.438;2022-07-18T00:04:18;9.82;;;7.00;;
55003;SDS011;40900;52.710;6.438;2022-07-18T00:06:43;9.90;;;6.95;;
55003;SDS011;40900;52.710;6.438;2022-07-18T00:09:09;8.73;;;5.80;;
55003;SDS011;40900;52.710;6.438;2022-07-18T00:11:35;9.68;;;6.60;;
55003;SDS011;40900;52.710;6.438;2022-07-18T00:14:00;11.52;;;6.55;;
55003;SDS011;40900;52.710;6.438;2022-07-18T00:16:26;12.18;;;7.00;;
55003;SDS011;40900;52.710;6.438;2022-07-18T00:18:52;8.02;;;6.32;;
55003;SDS011;40900;52.710;6.438;2022-07-18T00:21:19;10.00;;;6.80;;
55003;SDS011;40900;52.710;6.438;2022-07-18T00:23:46;10.50;;;6.45;;
55003;SDS011;40900;52.710;6.438;2022-07-18T00:26:11;10.43;;;6.60;;
55003;SDS011;40900;52.710;6.438;2022-07-18T00:28:37;9.80;;;7.15;;
55003;SDS011;40900;52.710;6.438;2022-07-18T00:31:03;10.88;;;7.13;;
55003;SDS011;40900;52.710;6.438;2022-07-18T00:33:29;8.63;;;6.60;;
55003;SDS011;40900;52.710;6.438;2022-07-18T00:35:54;9.63;;;6.30;;
55003;SDS011;40900;52.710;6.438;2022-07-18T00:38:20;11.60;;;7.38;;
55003;SDS011;40900;52.710;6.438;2022-07-18T00:40:46;10.25;;;7.72;;
55003;SDS011;40900;52.710;6.438;2022-07-18T00:43:12;11.75;;;7.40;;
55003;SDS011;40900;52.710;6.438;2022-07-18T00:45:39;11.00;;;7.75;;
55003;SDS011;40900;52.710;6.438;2022-07-18T00:48:08;13.70;;;7.78;;
55003;SDS011;40900;52.710;6.438;2022-07-18T00:50:34;9.18;;;7.25;;
55003;SDS011;40900;52.710;6.438;2022-07-18T00:53:00;9.00;;;7.47;;
55003;SDS011;40900;52.710;6.438;2022-07-18T00:55:25;11.50;;;7.43;;
55003;SDS011;40900;52.710;6.438;2022-07-18T00:57:51;9.88;;;7.45;;
55003;SDS011;40900;52.710;6.438;2022-07-18T01:00:19;10.07;;;7.53;;
55003;SDS011;40900;52.710;6.438;2022-07-18T01:03:04;10.60;;;8.13;;
55003;SDS011;40900;52.710;6.438;2022-07-18T01:05:29;13.40;;;7.78;;
55003;SDS011;40900;52.710;6.438;2022-07-18T01:07:55;9.70;;;7.60;;
55003;SDS011;40900;52.710;6.438;2022-07-18T01:10:21;12.07;;;8.25;;
55003;SDS011;40900;52.710;6.438;2022-07-18T01:12:47;13.38;;;8.48;;
55003;SDS011;40900;52.710;6.438;2022-07-18T01:15:12;14.18;;;7.85;;
55003;SDS011;40900;52.710;6.438;2022-07-18T01:17:38;12.25;;;8.57;;
55003;SDS011;40900;52.710;6.438;2022-07-18T01:20:05;14.48;;;9.00;;
55003;SDS011;40900;52.710;6.438;2022-07-18T01:22:31;11.90;;;8.93;;
55003;SDS011;40900;52.710;6.438;2022-07-18T01:24:57;12.98;;;8.75;;
55003;SDS011;40900;52.710;6.438;2022-07-18T01:27:23;13.15;;;9.43;;
55003;SDS011;40900;52.710;6.438;2022-07-18T01:29:50;13.60;;;8.73;;
55003;SDS011;40900;52.710;6.438;2022-07-18T01:32:17;11.52;;;9.27;;
55003;SDS011;40900;52.710;6.438;2022-07-18T01:34:44;11.02;;;8.35;;
55003;SDS011;40900;52.710;6.438;2022-07-18T01:37:11;14.43;;;8.98;;
55003;SDS011;40900;52.710;6.438;2022-07-18T01:39:37;12.13;;;8.63;;
55003;SDS011;40900;52.710;6.438;2022-07-18T01:42:04;11.48;;;8.70;;
55003;SDS011;40900;52.710;6.438;2022-07-18T01:44:31;12.45;;;9.52;;
55003;SDS011;40900;52.710;6.438;2022-07-18T01:46:59;13.80;;;9.45;;
55003;SDS011;40900;52.710;6.438;2022-07-18T01:49:25;14.27;;;9.88;;
55003;SDS011;40900;52.710;6.438;2022-07-18T01:51:53;12.50;;;9.35;;
55003;SDS011;40900;52.710;6.438;2022-07-18T01:54:20;16.80;;;9.52;;
55003;SDS011;40900;52.710;6.438;2022-07-18T01:56:46;14.88;;;9.40;;
55003;SDS011;40900;52.710;6.438;2022-07-18T01:59:12;15.25;;;9.68;;
55003;SDS011;40900;52.710;6.438;2022-07-18T02:01:38;14.18;;;9.55;;
55003;SDS011;40900;52.710;6.438;2022-07-18T02:04:04;12.80;;;9.65;;
55003;SDS011;40900;52.710;6.438;2022-07-18T02:06:30;13.25;;;9.70;;
55003;SDS011;40900;52.710;6.438;2022-07-18T02:08:55;13.18;;;9.93;;
55003;SDS011;40900;52.710;6.438;2022-07-18T02:11:21;12.02;;;8.70;;
55003;SDS011;40900;52.710;6.438;2022-07-18T02:13:47;14.05;;;9.73;;
55003;SDS011;40900;52.710;6.438;2022-07-18T02:16:13;14.73;;;9.95;;
55003;SDS011;40900;52.710;6.438;2022-07-18T02:18:39;15.90;;;10.07;;
55003;SDS011;40900;52.710;6.438;2022-07-18T02:21:04;13.88;;;9.70;;
55003;SDS011;40900;52.710;6.438;2022-07-18T02:23:31;14.65;;;10.63;;
55003;SDS011;40900;52.710;6.438;2022-07-18T02:25:56;19.67;;;10.15;;
55003;SDS011;40900;52.710;6.438;2022-07-18T02:28:22;14.77;;;9.95;;
55003;SDS011;40900;52.710;6.438;2022-07-18T02:30:48;13.95;;;10.52;;
55003;SDS011;40900;52.710;6.438;2022-07-18T02:33:14;17.45;;;10.23;;
55003;SDS011;40900;52.710;6.438;2022-07-18T02:35:41;14.27;;;10.75;;
55003;SDS011;40900;52.710;6.438;2022-07-18T02:38:07;12.77;;;9.90;;
55003;SDS011;40900;52.710;6.438;2022-07-18T02:40:33;19.15;;;11.10;;
55003;SDS011;40900;52.710;6.438;2022-07-18T02:43:00;14.82;;;10.77;;
55003;SDS011;40900;52.710;6.438;2022-07-18T02:45:26;15.50;;;10.05;;
55003;SDS011;40900;52.710;6.438;2022-07-18T02:47:52;14.43;;;10.40;;
55003;SDS011;40900;52.710;6.438;2022-07-18T02:50:19;16.27;;;10.10;;
55003;SDS011;40900;52.710;6.438;2022-07-18T02:52:45;17.50;;;10.43;;
55003;SDS011;40900;52.710;6.438;2022-07-18T02:55:12;16.35;;;11.57;;
55003;SDS011;40900;52.710;6.438;2022-07-18T02:57:39;14.82;;;10.55;;
55003;SDS011;40900;52.710;6.438;2022-07-18T03:00:06;16.38;;;11.65;;
55003;SDS011;40900;52.710;6.438;2022-07-18T03:02:34;15.98;;;11.13;;
55003;SDS011;40900;52.710;6.438;2022-07-18T03:05:00;18.75;;;10.68;;
55003;SDS011;40900;52.710;6.438;2022-07-18T03:07:27;15.77;;;10.85;;
55003;SDS011;40900;52.710;6.438;2022-07-18T03:09:52;13.48;;;10.63;;
55003;SDS011;40900;52.710;6.438;2022-07-18T03:12:18;14.35;;;10.52;;
55003;SDS011;40900;52.710;6.438;2022-07-18T03:14:44;16.23;;;11.20;;
55003;SDS011;40900;52.710;6.438;2022-07-18T03:17:10;14.57;;;10.35;;
55003;SDS011;40900;52.710;6.438;2022-07-18T03:19:36;15.02;;;10.93;;
55003;SDS011;40900;52.710;6.438;2022-07-18T03:22:02;16.98;;;10.32;;
55003;SDS011;40900;52.710;6.438;2022-07-18T03:24:29;15.05;;;10.82;;
55003;SDS011;40900;52.710;6.438;2022-07-18T03:26:54;14.40;;;11.23;;
55003;SDS011;40900;52.710;6.438;2022-07-18T03:29:20;12.40;;;10.30;;
55003;SDS011;40900;52.710;6.438;2022-07-18T03:31:46;17.02;;;11.10;;
55003;SDS011;40900;52.710;6.438;2022-07-18T03:34:12;14.75;;;10.35;;
55003;SDS011;40900;52.710;6.438;2022-07-18T03:36:38;14.98;;;11.13;;
55003;SDS011;40900;52.710;6.438;2022-07-18T03:39:05;16.58;;;10.50;;
55003;SDS011;40900;52.710;6.438;2022-07-18T03:41:31;14.30;;;10.55;;
55003;SDS011;40900;52.710;6.438;2022-07-18T03:43:57;19.23;;;10.82;;
55003;SDS011;40900;52.710;6.438;2022-07-18T03:46:23;17.05;;;10.43;;
55003;SDS011;40900;52.710;6.438;2022-07-18T03:48:48;16.92;;;10.98;;
55003;SDS011;40900;52.710;6.438;2022-07-18T03:51:14;16.02;;;10.82;;
55003;SDS011;40900;52.710;6.438;2022-07-18T03:53:40;12.98;;;10.70;;
55003;SDS011;40900;52.710;6.438;2022-07-18T03:56:06;14.57;;;10.57;;
55003;SDS011;40900;52.710;6.438;2022-07-18T03:58:32;19.80;;;11.50;;
55003;SDS011;40900;52.710;6.438;2022-07-18T04:00:58;13.65;;;10.73;;
55003;SDS011;40900;52.710;6.438;2022-07-18T04:03:24;17.00;;;11.57;;
55003;SDS011;40900;52.710;6.438;2022-07-18T04:05:50;14.43;;;10.98;;
55003;SDS011;40900;52.710;6.438;2022-07-18T04:08:16;15.95;;;10.98;;
55003;SDS011;40900;52.710;6.438;2022-07-18T04:10:42;16.20;;;11.32;;
55003;SDS011;40900;52.710;6.438;2022-07-18T04:13:08;18.65;;;10.77;;
55003;SDS011;40900;52.710;6.438;2022-07-18T04:15:35;15.05;;;11.45;;
55003;SDS011;40900;52.710;6.438;2022-07-18T04:18:02;19.83;;;10.65;;
55003;SDS011;40900;52.710;6.438;2022-07-18T04:20:28;14.63;;;10.88;;
55003;SDS011;40900;52.710;6.438;2022-07-18T04:22:56;18.17;;;12.07;;
55003;SDS011;40900;52.710;6.438;2022-07-18T04:25:24;14.10;;;10.68;;
55003;SDS011;40900;52.710;6.438;2022-07-18T04:27:52;13.75;;;9.90;;
55003;SDS011;40900;52.710;6.438;2022-07-18T04:30:19;14.60;;;10.18;;
55003;SDS011;40900;52.710;6.438;2022-07-18T04:32:47;13.45;;;9.52;;
55003;SDS011;40900;52.710;6.438;2022-07-18T04:35:13;14.15;;;9.65;;
55003;SDS011;40900;52.710;6.438;2022-07-18T04:37:39;14.13;;;10.15;;
55003;SDS011;40900;52.710;6.438;2022-07-18T04:40:06;14.43;;;9.68;;
55003;SDS011;40900;52.710;6.438;2022-07-18T04:42:33;14.18;;;10.35;;
55003;SDS011;40900;52.710;6.438;2022-07-18T04:44:59;12.27;;;9.63;;
55003;SDS011;40900;52.710;6.438;2022-07-18T04:47:26;12.75;;;9.77;;
55003;SDS011;40900;52.710;6.438;2022-07-18T04:49:52;14.00;;;9.82;;
55003;SDS011;40900;52.710;6.438;2022-07-18T04:52:18;12.88;;;9.55;;
55003;SDS011;40900;52.710;6.438;2022-07-18T04:54:44;13.30;;;9.85;;
55003;SDS011;40900;52.710;6.438;2022-07-18T04:57:10;14.65;;;10.10;;
55003;SDS011;40900;52.710;6.438;2022-07-18T04:59:43;20.13;;;10.07;;
55003;SDS011;40900;52.710;6.438;2022-07-18T05:02:10;13.85;;;9.70;;
55003;SDS011;40900;52.710;6.438;2022-07-18T05:04:36;14.50;;;9.50;;
55003;SDS011;40900;52.710;6.438;2022-07-18T05:07:03;15.50;;;9.90;;
55003;SDS011;40900;52.710;6.438;2022-07-18T05:09:30;16.08;;;9.55;;
55003;SDS011;40900;52.710;6.438;2022-07-18T05:11:56;16.13;;;9.20;;
55003;SDS011;40900;52.710;6.438;2022-07-18T05:14:21;14.43;;;8.90;;
55003;SDS011;40900;52.710;6.438;2022-07-18T05:16:48;16.77;;;9.15;;
55003;SDS011;40900;52.710;6.438;2022-07-18T05:19:13;14.35;;;9.32;;
55003;SDS011;40900;52.710;6.438;2022-07-18T05:21:42;10.70;;;8.15;;
55003;SDS011;40900;52.710;6.438;2022-07-18T05:24:08;11.20;;;8.85;;
55003;SDS011;40900;52.710;6.438;2022-07-18T05:26:34;13.43;;;8.45;;
55003;SDS011;40900;52.710;6.438;2022-07-18T05:29:00;13.25;;;8.40;;
55003;SDS011;40900;52.710;6.438;2022-07-18T05:31:26;12.95;;;8.82;;
55003;SDS011;40900;52.710;6.438;2022-07-18T05:33:52;14.60;;;9.90;;
55003;SDS011;40900;52.710;6.438;2022-07-18T05:36:17;11.55;;;8.57;;
55003;SDS011;40900;52.710;6.438;2022-07-18T05:38:43;13.15;;;8.68;;
55003;SDS011;40900;52.710;6.438;2022-07-18T05:41:09;17.52;;;9.55;;
55003;SDS011;40900;52.710;6.438;2022-07-18T05:43:34;12.07;;;8.48;;
55003;SDS011;40900;52.710;6.438;2022-07-18T05:46:00;11.30;;;7.63;;
55003;SDS011;40900;52.710;6.438;2022-07-18T05:48:26;11.32;;;8.38;;
55003;SDS011;40900;52.710;6.438;2022-07-18T05:50:52;14.07;;;8.70;;
55003;SDS011;40900;52.710;6.438;2022-07-18T05:53:17;13.60;;;8.38;;
55003;SDS011;40900;52.710;6.438;2022-07-18T05:55:43;12.00;;;7.18;;
55003;SDS011;40900;52.710;6.438;2022-07-18T05:58:09;14.07;;;7.68;;
55003;SDS011;40900;52.710;6.438;2022-07-18T06:00:35;9.43;;;7.38;;
55003;SDS011;40900;52.710;6.438;2022-07-18T06:03:01;12.75;;;6.88;;
55003;SDS011;40900;52.710;6.438;2022-07-18T06:05:27;10.77;;;6.30;;
55003;SDS011;40900;52.710;6.438;2022-07-18T06:07:53;14.35;;;6.50;;
55003;SDS011;40900;52.710;6.438;2022-07-18T06:10:19;13.10;;;6.00;;
55003;SDS011;40900;52.710;6.438;2022-07-18T06:12:46;12.23;;;5.80;;
55003;SDS011;40900;52.710;6.438;2022-07-18T06:15:12;8.95;;;5.65;;
55003;SDS011;40900;52.710;6.438;2022-07-18T06:17:38;8.07;;;5.57;;
55003;SDS011;40900;52.710;6.438;2022-07-18T06:20:04;11.95;;;6.05;;
55003;SDS011;40900;52.710;6.438;2022-07-18T06:22:32;12.40;;;6.10;;
55003;SDS011;40900;52.710;6.438;2022-07-18T06:24:59;8.82;;;5.20;;
55003;SDS011;40900;52.710;6.438;2022-07-18T06:27:25;10.60;;;5.85;;
55003;SDS011;40900;52.710;6.438;2022-07-18T06:29:50;10.93;;;5.57;;
55003;SDS011;40900;52.710;6.438;2022-07-18T06:32:16;9.52;;;5.45;;
55003;SDS011;40900;52.710;6.438;2022-07-18T06:34:42;8.98;;;5.32;;
55003;SDS011;40900;52.710;6.438;2022-07-18T06:37:07;13.02;;;5.38;;
55003;SDS011;40900;52.710;6.438;2022-07-18T06:39:33;14.32;;;5.70;;
55003;SDS011;40900;52.710;6.438;2022-07-18T06:41:59;9.13;;;5.13;;
55003;SDS011;40900;52.710;6.438;2022-07-18T06:44:25;8.98;;;5.18;;
55003;SDS011;40900;52.710;6.438;2022-07-18T06:46:50;11.38;;;5.97;;
55003;SDS011;40900;52.710;6.438;2022-07-18T06:49:17;9.77;;;4.97;;
55003;SDS011;40900;52.710;6.438;2022-07-18T06:51:44;11.07;;;5.10;;
55003;SDS011;40900;52.710;6.438;2022-07-18T06:54:09;12.88;;;5.50;;
55003;SDS011;40900;52.710;6.438;2022-07-18T06:56:35;6.10;;;4.55;;
55003;SDS011;40900;52.710;6.438;2022-07-18T06:59:01;12.70;;;4.85;;
55003;SDS011;40900;52.710;6.438;2022-07-18T07:01:27;9.18;;;4.72;;
55003;SDS011;40900;52.710;6.438;2022-07-18T07:03:52;7.30;;;4.82;;
55003;SDS011;40900;52.710;6.438;2022-07-18T07:06:18;8.50;;;4.88;;
55003;SDS011;40900;52.710;6.438;2022-07-18T07:08:44;7.75;;;4.10;;
55003;SDS011;40900;52.710;6.438;2022-07-18T07:11:09;7.78;;;4.20;;
55003;SDS011;40900;52.710;6.438;2022-07-18T07:13:35;8.75;;;4.30;;
55003;SDS011;40900;52.710;6.438;2022-07-18T07:16:01;6.63;;;3.75;;
55003;SDS011;40900;52.710;6.438;2022-07-18T07:18:27;8.02;;;4.40;;
55003;SDS011;40900;52.710;6.438;2022-07-18T07:20:52;8.23;;;3.90;;
55003;SDS011;40900;52.710;6.438;2022-07-18T07:23:18;9.30;;;3.88;;
55003;SDS011;40900;52.710;6.438;2022-07-18T07:25:44;8.38;;;3.78;;
55003;SDS011;40900;52.710;6.438;2022-07-18T07:28:09;8.55;;;4.15;;
55003;SDS011;40900;52.710;6.438;2022-07-18T07:30:35;8.60;;;3.70;;
55003;SDS011;40900;52.710;6.438;2022-07-18T07:33:01;6.50;;;3.67;;
55003;SDS011;40900;52.710;6.438;2022-07-18T07:35:27;6.25;;;3.58;;
55003;SDS011;40900;52.710;6.438;2022-07-18T07:37:57;9.25;;;3.40;;
55003;SDS011;40900;52.710;6.438;2022-07-18T07:40:25;9.23;;;3.50;;
55003;SDS011;40900;52.710;6.438;2022-07-18T07:42:52;6.55;;;3.03;;
55003;SDS011;40900;52.710;6.438;2022-07-18T07:45:29;9.13;;;3.40;;
55003;SDS011;40900;52.710;6.438;2022-07-18T07:47:54;7.30;;;3.33;;
55003;SDS011;40900;52.710;6.438;2022-07-18T07:50:20;5.47;;;3.55;;
55003;SDS011;40900;52.710;6.438;2022-07-18T07:52:46;6.30;;;3.55;;
55003;SDS011;40900;52.710;6.438;2022-07-18T07:55:11;9.07;;;3.22;;
55003;SDS011;40900;52.710;6.438;2022-07-18T07:57:37;6.75;;;3.30;;
55003;SDS011;40900;52.710;6.438;2022-07-18T08:00:04;7.15;;;3.03;;
55003;SDS011;40900;52.710;6.438;2022-07-18T08:02:32;6.82;;;3.22;;
55003;SDS011;40900;52.710;6.438;2022-07-18T08:04:58;10.55;;;3.45;;
55003;SDS011;40900;52.710;6.438;2022-07-18T08:07:24;7.78;;;3.10;;
55003;SDS011;40900;52.710;6.438;2022-07-18T08:09:50;8.30;;;3.10;;
55003;SDS011;40900;52.710;6.438;2022-07-18T08:12:15;5.85;;;3.20;;
55003;SDS011;40900;52.710;6.438;2022-07-18T08:14:41;7.53;;;3.45;;
55003;SDS011;40900;52.710;6.438;2022-07-18T08:17:07;7.97;;;3.45;;
55003;SDS011;40900;52.710;6.438;2022-07-18T08:19:33;8.23;;;3.30;;
55003;SDS011;40900;52.710;6.438;2022-07-18T08:21:59;7.18;;;2.95;;
55003;SDS011;40900;52.710;6.438;2022-07-18T08:24:24;7.63;;;2.92;;
55003;SDS011;40900;52.710;6.438;2022-07-18T08:26:50;10.85;;;3.20;;
55003;SDS011;40900;52.710;6.438;2022-07-18T08:29:16;8.27;;;2.70;;
55003;SDS011;40900;52.710;6.438;2022-07-18T08:31:41;5.38;;;2.58;;
55003;SDS011;40900;52.710;6.438;2022-07-18T08:34:07;7.07;;;2.60;;
55003;SDS011;40900;52.710;6.438;2022-07-18T08:36:33;5.50;;;2.35;;
55003;SDS011;40900;52.710;6.438;2022-07-18T08:38:58;6.93;;;2.55;;
55003;SDS011;40900;52.710;6.438;2022-07-18T08:41:25;6.60;;;2.30;;
55003;SDS011;40900;52.710;6.438;2022-07-18T08:43:52;7.20;;;2.78;;
55003;SDS011;40900;52.710;6.438;2022-07-18T08:46:19;5.05;;;2.50;;
55003;SDS011;40900;52.710;6.438;2022-07-18T08:48:47;5.07;;;2.50;;
55003;SDS011;40900;52.710;6.438;2022-07-18T08:51:14;9.10;;;2.40;;
55003;SDS011;40900;52.710;6.438;2022-07-18T08:53:40;6.63;;;2.42;;
55003;SDS011;40900;52.710;6.438;2022-07-18T08:56:06;4.30;;;2.30;;
55003;SDS011;40900;52.710;6.438;2022-07-18T08:58:32;8.93;;;2.78;;
55003;SDS011;40900;52.710;6.438;2022-07-18T09:00:58;7.45;;;2.65;;
55003;SDS011;40900;52.710;6.438;2022-07-18T09:03:24;6.88;;;2.67;;
55003;SDS011;40900;52.710;6.438;2022-07-18T09:08:38;5.78;;;2.33;;
55003;SDS011;40900;52.710;6.438;2022-07-18T09:11:08;8.68;;;2.20;;
55003;SDS011;40900;52.710;6.438;2022-07-18T09:13:37;5.53;;;2.10;;
55003;SDS011;40900;52.710;6.438;2022-07-18T09:16:10;5.38;;;1.80;;
55003;SDS011;40900;52.710;6.438;2022-07-18T09:18:38;8.75;;;2.10;;
55003;SDS011;40900;52.710;6.438;2022-07-18T09:21:07;6.82;;;2.40;;
55003;SDS011;40900;52.710;6.438;2022-07-18T09:23:36;5.05;;;2.03;;
55003;SDS011;40900;52.710;6.438;2022-07-18T09:26:04;8.60;;;2.28;;
55003;SDS011;40900;52.710;6.438;2022-07-18T09:28:52;5.60;;;2.00;;
55003;SDS011;40900;52.710;6.438;2022-07-18T09:31:18;3.97;;;1.90;;
55003;SDS011;40900;52.710;6.438;2022-07-18T09:33:54;8.38;;;2.25;;
55003;SDS011;40900;52.710;6.438;2022-07-18T09:36:21;6.32;;;2.33;;
55003;SDS011;40900;52.710;6.438;2022-07-18T09:38:47;6.47;;;2.25;;
55003;SDS011;40900;52.710;6.438;2022-07-18T09:41:13;5.47;;;1.73;;
55003;SDS011;40900;52.710;6.438;2022-07-18T09:43:39;5.55;;;2.10;;
55003;SDS011;40900;52.710;6.438;2022-07-18T09:46:05;8.48;;;2.20;;
55003;SDS011;40900;52.710;6.438;2022-07-18T09:48:32;5.40;;;2.17;;
55003;SDS011;40900;52.710;6.438;2022-07-18T09:53:25;5.78;;;1.85;;
55003;SDS011;40900;52.710;6.438;2022-07-18T09:55:53;4.57;;;1.90;;
55003;SDS011;40900;52.710;6.438;2022-07-18T09:58:25;5.53;;;1.90;;
55003;SDS011;40900;52.710;6.438;2022-07-18T10:00:54;4.38;;;2.10;;
55003;SDS011;40900;52.710;6.438;2022-07-18T10:03:21;4.78;;;1.60;;
55003;SDS011;40900;52.710;6.438;2022-07-18T10:05:49;6.32;;;2.03;;
55003;SDS011;40900;52.710;6.438;2022-07-18T10:08:16;5.90;;;1.95;;
55003;SDS011;40900;52.710;6.438;2022-07-18T10:10:44;5.13;;;1.90;;
55003;SDS011;40900;52.710;6.438;2022-07-18T10:13:12;8.75;;;2.08;;
55003;SDS011;40900;52.710;6.438;2022-07-18T10:15:40;4.47;;;2.05;;
55003;SDS011;40900;52.710;6.438;2022-07-18T10:18:07;5.03;;;2.03;;
55003;SDS011;40900;52.710;6.438;2022-07-18T10:26:05;3.83;;;1.95;;
55003;SDS011;40900;52.710;6.438;2022-07-18T10:33:48;5.05;;;1.83;;
55003;SDS011;40900;52.710;6.438;2022-07-18T10:36:15;7.72;;;2.25;;
55003;SDS011;40900;52.710;6.438;2022-07-18T10:44:38;4.38;;;2.17;;
55003;SDS011;40900;52.710;6.438;2022-07-18T10:47:08;3.40;;;2.03;;
55003;SDS011;40900;52.710;6.438;2022-07-18T10:57:34;6.00;;;2.45;;
55003;SDS011;40900;52.710;6.438;2022-07-18T11:02:39;14.45;;;2.40;;
55003;SDS011;40900;52.710;6.438;2022-07-18T11:15:59;4.75;;;2.50;;
55003;SDS011;40900;52.710;6.438;2022-07-18T11:23:59;4.07;;;2.45;;
55003;SDS011;40900;52.710;6.438;2022-07-18T11:26:29;4.93;;;2.65;;
55003;SDS011;40900;52.710;6.438;2022-07-18T11:31:32;5.15;;;3.00;;
55003;SDS011;40900;52.710;6.438;2022-07-18T11:34:08;9.07;;;2.97;;
55003;SDS011;40900;52.710;6.438;2022-07-18T11:36:33;6.40;;;2.60;;
55003;SDS011;40900;52.710;6.438;2022-07-18T11:39:00;4.30;;;2.30;;
55003;SDS011;40900;52.710;6.438;2022-07-18T11:41:28;7.78;;;2.90;;
55003;SDS011;40900;52.710;6.438;2022-07-18T11:43:54;3.92;;;2.50;;
55003;SDS011;40900;52.710;6.438;2022-07-18T11:46:21;4.32;;;2.20;;
55003;SDS011;40900;52.710;6.438;2022-07-18T11:48:57;7.30;;;2.78;;
55003;SDS011;40900;52.710;6.438;2022-07-18T11:51:33;5.32;;;3.10;;
55003;SDS011;40900;52.710;6.438;2022-07-18T11:54:06;4.93;;;3.30;;
55003;SDS011;40900;52.710;6.438;2022-07-18T11:56:33;3.67;;;2.90;;
55003;SDS011;40900;52.710;6.438;2022-07-18T11:59:14;4.40;;;2.75;;
55003;SDS011;40900;52.710;6.438;2022-07-18T12:01:40;5.90;;;2.92;;
55003;SDS011;40900;52.710;6.438;2022-07-18T12:04:07;5.95;;;3.10;;
55003;SDS011;40900;52.710;6.438;2022-07-18T12:06:42;6.45;;;2.92;;
55003;SDS011;40900;52.710;6.438;2022-07-18T12:09:08;4.13;;;2.70;;
55003;SDS011;40900;52.710;6.438;2022-07-18T12:11:34;4.50;;;2.85;;
55003;SDS011;40900;52.710;6.438;2022-07-18T12:14:22;7.63;;;2.67;;
55003;SDS011;40900;52.710;6.438;2022-07-18T12:16:48;4.90;;;2.83;;
55003;SDS011;40900;52.710;6.438;2022-07-18T12:19:21;5.55;;;2.88;;
55003;SDS011;40900;52.710;6.438;2022-07-18T12:22:04;5.25;;;2.63;;
55003;SDS011;40900;52.710;6.438;2022-07-18T12:32:40;4.68;;;2.70;;
55003;SDS011;40900;52.710;6.438;2022-07-18T12:37:53;6.63;;;2.80;;
55003;SDS011;40900;52.710;6.438;2022-07-18T12:40:23;4.22;;;3.10;;
55003;SDS011;40900;52.710;6.438;2022-07-18T12:43:01;5.28;;;2.85;;
55003;SDS011;40900;52.710;6.438;2022-07-18T12:45:34;8.07;;;3.30;;
55003;SDS011;40900;52.710;6.438;2022-07-18T12:48:01;6.30;;;2.90;;
55003;SDS011;40900;52.710;6.438;2022-07-18T12:50:27;4.65;;;2.65;;
55003;SDS011;40900;52.710;6.438;2022-07-18T12:52:52;5.13;;;3.20;;
55003;SDS011;40900;52.710;6.438;2022-07-18T12:55:18;6.35;;;2.50;;
55003;SDS011;40900;52.710;6.438;2022-07-18T12:57:44;5.47;;;3.05;;
55003;SDS011;40900;52.710;6.438;2022-07-18T13:00:10;3.95;;;2.70;;
55003;SDS011;40900;52.710;6.438;2022-07-18T13:02:37;3.80;;;2.40;;
55003;SDS011;40900;52.710;6.438;2022-07-18T13:05:03;5.85;;;2.80;;
55003;SDS011;40900;52.710;6.438;2022-07-18T13:07:28;4.93;;;2.22;;
55003;SDS011;40900;52.710;6.438;2022-07-18T13:09:54;9.07;;;2.40;;
55003;SDS011;40900;52.710;6.438;2022-07-18T13:12:20;4.45;;;2.70;;
55003;SDS011;40900;52.710;6.438;2022-07-18T13:14:46;5.07;;;2.55;;
55003;SDS011;40900;52.710;6.438;2022-07-18T13:17:12;5.82;;;2.60;;
55003;SDS011;40900;52.710;6.438;2022-07-18T13:19:38;5.47;;;2.25;;
55003;SDS011;40900;52.710;6.438;2022-07-18T13:22:04;4.43;;;2.00;;
55003;SDS011;40900;52.710;6.438;2022-07-18T13:24:30;3.75;;;2.50;;
55003;SDS011;40900;52.710;6.438;2022-07-18T13:26:56;3.90;;;2.15;;
55003;SDS011;40900;52.710;6.438;2022-07-18T13:29:21;4.75;;;2.60;;
55003;SDS011;40900;52.710;6.438;2022-07-18T13:31:47;3.65;;;2.35;;
55003;SDS011;40900;52.710;6.438;2022-07-18T13:34:15;4.57;;;2.58;;
55003;SDS011;40900;52.710;6.438;2022-07-18T13:36:41;3.03;;;2.15;;
55003;SDS011;40900;52.710;6.438;2022-07-18T13:39:06;5.95;;;2.40;;
55003;SDS011;40900;52.710;6.438;2022-07-18T13:41:32;5.90;;;2.33;;
55003;SDS011;40900;52.710;6.438;2022-07-18T13:43:58;6.72;;;2.58;;
55003;SDS011;40900;52.710;6.438;2022-07-18T13:46:23;4.65;;;2.22;;
55003;SDS011;40900;52.710;6.438;2022-07-18T13:48:49;6.70;;;2.70;;
55003;SDS011;40900;52.710;6.438;2022-07-18T13:51:15;4.65;;;2.22;;
55003;SDS011;40900;52.710;6.438;2022-07-18T13:53:41;5.47;;;2.30;;
55003;SDS011;40900;52.710;6.438;2022-07-18T13:56:07;4.43;;;2.53;;
55003;SDS011;40900;52.710;6.438;2022-07-18T13:58:32;3.13;;;2.20;;
55003;SDS011;40900;52.710;6.438;2022-07-18T14:00:59;2.70;;;1.90;;
55003;SDS011;40900;52.710;6.438;2022-07-18T14:03:25;4.78;;;2.13;;
55003;SDS011;40900;52.710;6.438;2022-07-18T14:05:51;4.22;;;2.00;;
55003;SDS011;40900;52.710;6.438;2022-07-18T14:08:17;6.28;;;2.53;;
55003;SDS011;40900;52.710;6.438;2022-07-18T14:10:42;4.70;;;2.20;;
55003;SDS011;40900;52.710;6.438;2022-07-18T14:13:09;5.15;;;2.17;;
55003;SDS011;40900;52.710;6.438;2022-07-18T14:15:34;5.38;;;2.30;;
55003;SDS011;40900;52.710;6.438;2022-07-18T14:18:00;3.65;;;2.30;;
55003;SDS011;40900;52.710;6.438;2022-07-18T14:20:26;3.42;;;1.95;;
55003;SDS011;40900;52.710;6.438;2022-07-18T14:22:52;4.25;;;2.35;;
55003;SDS011;40900;52.710;6.438;2022-07-18T14:25:18;7.38;;;2.35;;
55003;SDS011;40900;52.710;6.438;2022-07-18T14:27:44;5.65;;;2.40;;
55003;SDS011;40900;52.710;6.438;2022-07-18T14:30:11;4.25;;;2.67;;
55003;SDS011;40900;52.710;6.438;2022-07-18T14:32:38;6.63;;;2.20;;
55003;SDS011;40900;52.710;6.438;2022-07-18T14:35:04;3.88;;;2.13;;
55003;SDS011;40900;52.710;6.438;2022-07-18T14:37:31;5.95;;;2.50;;
55003;SDS011;40900;52.710;6.438;2022-07-18T14:39:57;3.97;;;2.10;;
55003;SDS011;40900;52.710;6.438;2022-07-18T14:42:25;4.47;;;2.20;;
55003;SDS011;40900;52.710;6.438;2022-07-18T14:44:52;7.50;;;2.85;;
55003;SDS011;40900;52.710;6.438;2022-07-18T14:47:18;5.78;;;2.28;;
55003;SDS011;40900;52.710;6.438;2022-07-18T14:49:44;6.10;;;2.10;;
55003;SDS011;40900;52.710;6.438;2022-07-18T14:52:09;3.85;;;2.20;;
55003;SDS011;40900;52.710;6.438;2022-07-18T14:54:36;5.72;;;2.50;;
55003;SDS011;40900;52.710;6.438;2022-07-18T14:57:01;3.90;;;2.10;;
55003;SDS011;40900;52.710;6.438;2022-07-18T14:59:31;4.40;;;2.28;;
55003;SDS011;40900;52.710;6.438;2022-07-18T15:01:57;4.95;;;2.05;;
55003;SDS011;40900;52.710;6.438;2022-07-18T15:04:27;6.95;;;2.53;;
55003;SDS011;40900;52.710;6.438;2022-07-18T15:06:52;4.35;;;1.95;;
55003;SDS011;40900;52.710;6.438;2022-07-18T15:09:18;4.47;;;2.30;;
55003;SDS011;40900;52.710;6.438;2022-07-18T15:11:44;6.00;;;2.45;;
55003;SDS011;40900;52.710;6.438;2022-07-18T15:14:09;3.60;;;2.60;;
55003;SDS011;40900;52.710;6.438;2022-07-18T15:16:35;7.18;;;2.42;;
55003;SDS011;40900;52.710;6.438;2022-07-18T15:19:01;3.95;;;2.50;;
55003;SDS011;40900;52.710;6.438;2022-07-18T15:21:28;4.20;;;2.38;;
55003;SDS011;40900;52.710;6.438;2022-07-18T15:23:53;4.35;;;2.30;;
55003;SDS011;40900;52.710;6.438;2022-07-18T15:26:19;3.08;;;2.30;;
55003;SDS011;40900;52.710;6.438;2022-07-18T15:28:45;6.72;;;2.13;;
55003;SDS011;40900;52.710;6.438;2022-07-18T15:31:10;4.60;;;2.30;;
55003;SDS011;40900;52.710;6.438;2022-07-18T15:33:36;4.32;;;2.13;;
55003;SDS011;40900;52.710;6.438;2022-07-18T15:36:02;4.07;;;2.28;;
55003;SDS011;40900;52.710;6.438;2022-07-18T15:38:28;5.97;;;2.22;;
55003;SDS011;40900;52.710;6.438;2022-07-18T15:40:54;7.43;;;2.65;;